sensor_id;sensor_type;location;lat;lon;timestamp;P1;durP1;ratioP1;P2;durP2;ratioP2
7605;SDS011;3844;53.360;9.738;2022-09-24T00:01:14;6.05;;;3.80;;
7605;SDS011;3844;53.360;9.738;2022-09-24T00:03:20;7.93;;;3.92;;
7605;SDS011;3844;53.360;9.738;2022-09-24T00:05:22;5.32;;;3.30;;
7605;SDS011;3844;53.360;9.738;2022-09-24T00:07:23;5.38;;;3.60;;
7605;SDS011;3844;53.360;9.738;2022-09-24T00:09:24;7.25;;;3.53;;
7605;SDS011;3844;53.360;9.738;2022-09-24T00:11:26;7.97;;;3.88;;
7605;SDS011;3844;53.360;9.738;2022-09-24T00:13:27;5.68;;;3.42;;
7605;SDS011;3844;53.360;9.738;2022-09-24T00:15:28;6.50;;;3.70;;
7605;SDS011;3844;53.360;9.738;2022-09-24T00:17:30;6.80;;;3.78;;
7605;SDS011;3844;53.360;9.738;2022-09-24T00:19:31;5.93;;;3.83;;
7605;SDS011;3844;53.360;9.738;2022-09-24T00:21:32;7.85;;;3.80;;
7605;SDS011;3844;53.360;9.738;2022-09-24T00:23:34;6.43;;;3.50;;
7605;SDS011;3844;53.360;9.738;2022-09-24T00:25:41;6.53;;;3.65;;
7605;SDS011;3844;53.360;9.738;2022-09-24T00:28:01;6.30;;;3.55;;
7605;SDS011;3844;53.360;9.738;2022-09-24T00:30:02;5.40;;;3.42;;
7605;SDS011;3844;53.360;9.738;2022-09-24T00:32:03;5.78;;;3.70;;
7605;SDS011;3844;53.360;9.738;2022-09-24T00:34:04;6.07;;;3.58;;
7605;SDS011;3844;53.360;9.738;2022-09-24T00:36:05;6.30;;;3.50;;
7605;SDS011;3844;53.360;9.738;2022-09-24T00:38:06;6.20;;;3.95;;
7605;SDS011;3844;53.360;9.738;2022-09-24T00:40:08;6.15;;;3.65;;
7605;SDS011;3844;53.360;9.738;2022-09-24T00:42:09;6.28;;;3.65;;
7605;SDS011;3844;53.360;9.738;2022-09-24T00:48:57;6.10;;;4.13;;
7605;SDS011;3844;53.360;9.738;2022-09-24T00:51:05;6.85;;;3.70;;
7605;SDS011;3844;53.360;9.738;2022-09-24T00:53:08;5.28;;;3.63;;
7605;SDS011;3844;53.360;9.738;2022-09-24T00:55:12;6.25;;;3.60;;
7605;SDS011;3844;53.360;9.738;2022-09-24T00:57:14;6.07;;;3.97;;
7605;SDS011;3844;53.360;9.738;2022-09-24T00:59:15;6.72;;;4.57;;
7605;SDS011;3844;53.360;9.738;2022-09-24T01:01:19;7.05;;;4.55;;
7605;SDS011;3844;53.360;9.738;2022-09-24T01:03:23;7.55;;;4.25;;
7605;SDS011;3844;53.360;9.738;2022-09-24T01:05:25;5.37;;;3.17;;
7605;SDS011;3844;53.360;9.738;2022-09-24T01:07:26;6.82;;;4.15;;
7605;SDS011;3844;53.360;9.738;2022-09-24T01:09:27;7.40;;;4.15;;
7605;SDS011;3844;53.360;9.738;2022-09-24T01:16:21;6.43;;;4.15;;
7605;SDS011;3844;53.360;9.738;2022-09-24T01:18:43;7.20;;;4.50;;
7605;SDS011;3844;53.360;9.738;2022-09-24T01:21:04;7.20;;;4.30;;
7605;SDS011;3844;53.360;9.738;2022-09-24T01:23:23;6.40;;;4.30;;
7605;SDS011;3844;53.360;9.738;2022-09-24T01:28:18;6.50;;;4.18;;
7605;SDS011;3844;53.360;9.738;2022-09-24T01:30:42;5.93;;;4.10;;
7605;SDS011;3844;53.360;9.738;2022-09-24T01:34:59;5.47;;;3.72;;
7605;SDS011;3844;53.360;9.738;2022-09-24T01:37:04;6.20;;;4.10;;
7605;SDS011;3844;53.360;9.738;2022-09-24T01:39:05;7.05;;;4.10;;
7605;SDS011;3844;53.360;9.738;2022-09-24T01:41:08;6.20;;;4.10;;
7605;SDS011;3844;53.360;9.738;2022-09-24T01:45:12;7.50;;;4.53;;
7605;SDS011;3844;53.360;9.738;2022-09-24T01:47:20;7.22;;;4.10;;
7605;SDS011;3844;53.360;9.738;2022-09-24T01:49:28;7.38;;;4.55;;
7605;SDS011;3844;53.360;9.738;2022-09-24T01:51:34;5.97;;;4.20;;
7605;SDS011;3844;53.360;9.738;2022-09-24T01:56:06;6.90;;;4.30;;
7605;SDS011;3844;53.360;9.738;2022-09-24T01:58:10;7.53;;;4.80;;
7605;SDS011;3844;53.360;9.738;2022-09-24T02:00:24;7.07;;;4.78;;
7605;SDS011;3844;53.360;9.738;2022-09-24T02:04:34;8.20;;;4.80;;
7605;SDS011;3844;53.360;9.738;2022-09-24T02:06:45;7.82;;;4.97;;
7605;SDS011;3844;53.360;9.738;2022-09-24T02:09:03;7.05;;;4.93;;
7605;SDS011;3844;53.360;9.738;2022-09-24T02:13:13;7.78;;;5.10;;
7605;SDS011;3844;53.360;9.738;2022-09-24T02:17:23;7.72;;;4.60;;
7605;SDS011;3844;53.360;9.738;2022-09-24T02:19:27;7.80;;;5.03;;
7605;SDS011;3844;53.360;9.738;2022-09-24T02:21:30;6.53;;;4.07;;
7605;SDS011;3844;53.360;9.738;2022-09-24T02:23:34;9.30;;;5.63;;
7605;SDS011;3844;53.360;9.738;2022-09-24T02:25:48;8.43;;;5.60;;
7605;SDS011;3844;53.360;9.738;2022-09-24T02:27:53;8.38;;;5.70;;
7605;SDS011;3844;53.360;9.738;2022-09-24T02:29:55;9.10;;;6.28;;
7605;SDS011;3844;53.360;9.738;2022-09-24T02:31:57;10.70;;;6.47;;
7605;SDS011;3844;53.360;9.738;2022-09-24T02:34:00;9.23;;;6.10;;
7605;SDS011;3844;53.360;9.738;2022-09-24T02:36:20;8.60;;;6.22;;
7605;SDS011;3844;53.360;9.738;2022-09-24T02:38:23;10.82;;;6.25;;
7605;SDS011;3844;53.360;9.738;2022-09-24T02:40:24;9.40;;;6.10;;
7605;SDS011;3844;53.360;9.738;2022-09-24T02:42:25;10.13;;;6.78;;
7605;SDS011;3844;53.360;9.738;2022-09-24T02:44:26;9.25;;;6.40;;
7605;SDS011;3844;53.360;9.738;2022-09-24T02:46:27;11.27;;;6.70;;
7605;SDS011;3844;53.360;9.738;2022-09-24T02:48:28;10.35;;;6.78;;
7605;SDS011;3844;53.360;9.738;2022-09-24T02:50:28;10.48;;;6.35;;
7605;SDS011;3844;53.360;9.738;2022-09-24T02:52:29;10.00;;;6.28;;
7605;SDS011;3844;53.360;9.738;2022-09-24T02:54:30;8.50;;;6.40;;
7605;SDS011;3844;53.360;9.738;2022-09-24T02:56:30;11.30;;;6.60;;
7605;SDS011;3844;53.360;9.738;2022-09-24T02:58:31;11.25;;;7.00;;
7605;SDS011;3844;53.360;9.738;2022-09-24T03:00:32;12.23;;;7.07;;
7605;SDS011;3844;53.360;9.738;2022-09-24T03:02:33;12.52;;;7.82;;
7605;SDS011;3844;53.360;9.738;2022-09-24T03:04:34;14.07;;;8.40;;
7605;SDS011;3844;53.360;9.738;2022-09-24T03:06:34;11.43;;;7.30;;
7605;SDS011;3844;53.360;9.738;2022-09-24T03:08:35;11.98;;;8.10;;
7605;SDS011;3844;53.360;9.738;2022-09-24T03:10:36;13.48;;;9.32;;
7605;SDS011;3844;53.360;9.738;2022-09-24T03:12:37;12.88;;;8.80;;
7605;SDS011;3844;53.360;9.738;2022-09-24T03:14:39;15.52;;;11.00;;
7605;SDS011;3844;53.360;9.738;2022-09-24T03:16:40;18.17;;;11.00;;
7605;SDS011;3844;53.360;9.738;2022-09-24T03:18:40;17.23;;;11.88;;
7605;SDS011;3844;53.360;9.738;2022-09-24T03:20:41;16.77;;;11.55;;
7605;SDS011;3844;53.360;9.738;2022-09-24T03:22:42;15.80;;;10.25;;
7605;SDS011;3844;53.360;9.738;2022-09-24T03:24:43;15.10;;;10.43;;
7605;SDS011;3844;53.360;9.738;2022-09-24T03:26:47;17.60;;;11.00;;
7605;SDS011;3844;53.360;9.738;2022-09-24T03:28:47;24.23;;;16.45;;
7605;SDS011;3844;53.360;9.738;2022-09-24T03:30:48;18.90;;;13.40;;
7605;SDS011;3844;53.360;9.738;2022-09-24T03:33:01;16.65;;;11.05;;
7605;SDS011;3844;53.360;9.738;2022-09-24T03:35:02;21.00;;;13.00;;
7605;SDS011;3844;53.360;9.738;2022-09-24T03:37:03;17.40;;;12.10;;
7605;SDS011;3844;53.360;9.738;2022-09-24T03:39:04;20.15;;;13.65;;
7605;SDS011;3844;53.360;9.738;2022-09-24T03:41:05;18.27;;;12.52;;
7605;SDS011;3844;53.360;9.738;2022-09-24T03:43:06;20.38;;;13.88;;
7605;SDS011;3844;53.360;9.738;2022-09-24T03:45:07;17.88;;;12.43;;
7605;SDS011;3844;53.360;9.738;2022-09-24T03:47:08;18.92;;;12.32;;
7605;SDS011;3844;53.360;9.738;2022-09-24T03:49:09;17.10;;;12.15;;
7605;SDS011;3844;53.360;9.738;2022-09-24T03:51:11;20.75;;;13.82;;
7605;SDS011;3844;53.360;9.738;2022-09-24T03:53:14;18.20;;;12.75;;
7605;SDS011;3844;53.360;9.738;2022-09-24T03:55:15;18.33;;;12.30;;
7605;SDS011;3844;53.360;9.738;2022-09-24T03:57:15;21.10;;;14.50;;
7605;SDS011;3844;53.360;9.738;2022-09-24T03:59:16;19.40;;;13.60;;
7605;SDS011;3844;53.360;9.738;2022-09-24T04:01:17;20.08;;;12.70;;
7605;SDS011;3844;53.360;9.738;2022-09-24T04:03:20;19.75;;;12.93;;
7605;SDS011;3844;53.360;9.738;2022-09-24T04:05:21;22.13;;;15.27;;
7605;SDS011;3844;53.360;9.738;2022-09-24T04:07:22;19.10;;;13.60;;
7605;SDS011;3844;53.360;9.738;2022-09-24T04:09:23;20.00;;;13.68;;
7605;SDS011;3844;53.360;9.738;2022-09-24T04:11:23;22.48;;;14.73;;
7605;SDS011;3844;53.360;9.738;2022-09-24T04:13:25;21.30;;;13.52;;
7605;SDS011;3844;53.360;9.738;2022-09-24T04:15:25;22.40;;;14.52;;
7605;SDS011;3844;53.360;9.738;2022-09-24T04:17:26;20.83;;;14.52;;
7605;SDS011;3844;53.360;9.738;2022-09-24T04:19:30;24.98;;;16.90;;
7605;SDS011;3844;53.360;9.738;2022-09-24T04:21:30;23.25;;;15.45;;
7605;SDS011;3844;53.360;9.738;2022-09-24T04:23:31;23.15;;;15.50;;
7605;SDS011;3844;53.360;9.738;2022-09-24T04:25:32;23.25;;;15.88;;
7605;SDS011;3844;53.360;9.738;2022-09-24T04:27:33;21.75;;;15.48;;
7605;SDS011;3844;53.360;9.738;2022-09-24T04:29:35;22.15;;;14.73;;
7605;SDS011;3844;53.360;9.738;2022-09-24T04:31:36;22.23;;;15.50;;
7605;SDS011;3844;53.360;9.738;2022-09-24T04:33:38;19.63;;;12.70;;
7605;SDS011;3844;53.360;9.738;2022-09-24T04:35:39;19.35;;;12.93;;
7605;SDS011;3844;53.360;9.738;2022-09-24T04:37:40;19.83;;;13.73;;
7605;SDS011;3844;53.360;9.738;2022-09-24T04:39:41;18.65;;;12.55;;
7605;SDS011;3844;53.360;9.738;2022-09-24T04:41:42;18.95;;;12.93;;
7605;SDS011;3844;53.360;9.738;2022-09-24T04:43:43;21.33;;;14.35;;
7605;SDS011;3844;53.360;9.738;2022-09-24T04:45:45;20.73;;;13.63;;
7605;SDS011;3844;53.360;9.738;2022-09-24T04:47:47;18.40;;;13.00;;
7605;SDS011;3844;53.360;9.738;2022-09-24T04:49:52;22.58;;;14.93;;
7605;SDS011;3844;53.360;9.738;2022-09-24T04:51:53;20.70;;;12.63;;
7605;SDS011;3844;53.360;9.738;2022-09-24T04:53:57;19.40;;;12.40;;
7605;SDS011;3844;53.360;9.738;2022-09-24T04:55:58;17.75;;;11.73;;
7605;SDS011;3844;53.360;9.738;2022-09-24T04:57:59;18.58;;;11.52;;
7605;SDS011;3844;53.360;9.738;2022-09-24T05:00:00;18.67;;;12.35;;
7605;SDS011;3844;53.360;9.738;2022-09-24T05:02:02;17.67;;;11.03;;
7605;SDS011;3844;53.360;9.738;2022-09-24T05:04:05;18.00;;;11.38;;
7605;SDS011;3844;53.360;9.738;2022-09-24T05:06:06;19.08;;;12.38;;
7605;SDS011;3844;53.360;9.738;2022-09-24T05:08:07;17.40;;;10.88;;
7605;SDS011;3844;53.360;9.738;2022-09-24T05:10:07;20.42;;;13.15;;
7605;SDS011;3844;53.360;9.738;2022-09-24T05:12:08;20.25;;;12.20;;
7605;SDS011;3844;53.360;9.738;2022-09-24T05:14:09;22.50;;;14.18;;
7605;SDS011;3844;53.360;9.738;2022-09-24T05:16:10;18.80;;;11.90;;
7605;SDS011;3844;53.360;9.738;2022-09-24T05:18:11;18.80;;;12.45;;
7605;SDS011;3844;53.360;9.738;2022-09-24T05:20:12;21.02;;;12.88;;
7605;SDS011;3844;53.360;9.738;2022-09-24T05:22:14;20.88;;;12.60;;
7605;SDS011;3844;53.360;9.738;2022-09-24T05:24:14;20.70;;;12.85;;
7605;SDS011;3844;53.360;9.738;2022-09-24T05:26:15;25.58;;;13.63;;
7605;SDS011;3844;53.360;9.738;2022-09-24T05:28:34;19.10;;;11.85;;
7605;SDS011;3844;53.360;9.738;2022-09-24T05:30:36;21.33;;;12.90;;
7605;SDS011;3844;53.360;9.738;2022-09-24T05:32:37;21.60;;;13.40;;
7605;SDS011;3844;53.360;9.738;2022-09-24T05:34:38;22.17;;;13.38;;
7605;SDS011;3844;53.360;9.738;2022-09-24T05:36:40;17.58;;;10.32;;
7605;SDS011;3844;53.360;9.738;2022-09-24T05:38:44;19.17;;;11.75;;
7605;SDS011;3844;53.360;9.738;2022-09-24T05:40:45;21.90;;;12.50;;
7605;SDS011;3844;53.360;9.738;2022-09-24T05:42:48;21.33;;;12.55;;
7605;SDS011;3844;53.360;9.738;2022-09-24T05:44:49;19.80;;;11.82;;
7605;SDS011;3844;53.360;9.738;2022-09-24T05:46:50;18.77;;;10.90;;
7605;SDS011;3844;53.360;9.738;2022-09-24T05:48:52;21.45;;;12.40;;
7605;SDS011;3844;53.360;9.738;2022-09-24T05:50:52;23.75;;;14.90;;
7605;SDS011;3844;53.360;9.738;2022-09-24T05:52:56;21.05;;;13.18;;
7605;SDS011;3844;53.360;9.738;2022-09-24T05:54:57;22.40;;;13.38;;
7605;SDS011;3844;53.360;9.738;2022-09-24T05:56:58;28.70;;;16.95;;
7605;SDS011;3844;53.360;9.738;2022-09-24T05:58:59;23.40;;;14.07;;
7605;SDS011;3844;53.360;9.738;2022-09-24T06:00:59;26.85;;;16.63;;
7605;SDS011;3844;53.360;9.738;2022-09-24T06:03:04;26.98;;;16.40;;
7605;SDS011;3844;53.360;9.738;2022-09-24T06:05:07;31.70;;;18.65;;
7605;SDS011;3844;53.360;9.738;2022-09-24T06:07:08;28.65;;;16.60;;
7605;SDS011;3844;53.360;9.738;2022-09-24T06:09:09;25.50;;;15.45;;
7605;SDS011;3844;53.360;9.738;2022-09-24T06:11:10;22.52;;;13.88;;
7605;SDS011;3844;53.360;9.738;2022-09-24T06:13:15;22.23;;;13.60;;
7605;SDS011;3844;53.360;9.738;2022-09-24T06:15:17;20.60;;;13.20;;
7605;SDS011;3844;53.360;9.738;2022-09-24T06:17:20;24.67;;;15.32;;
7605;SDS011;3844;53.360;9.738;2022-09-24T06:19:21;21.70;;;13.82;;
7605;SDS011;3844;53.360;9.738;2022-09-24T06:21:22;23.60;;;14.30;;
7605;SDS011;3844;53.360;9.738;2022-09-24T06:23:23;24.88;;;14.65;;
7605;SDS011;3844;53.360;9.738;2022-09-24T06:25:24;19.95;;;13.00;;
7605;SDS011;3844;53.360;9.738;2022-09-24T06:27:25;29.58;;;18.48;;
7605;SDS011;3844;53.360;9.738;2022-09-24T06:29:26;23.52;;;14.38;;
7605;SDS011;3844;53.360;9.738;2022-09-24T06:31:27;22.38;;;13.75;;
7605;SDS011;3844;53.360;9.738;2022-09-24T06:33:28;22.77;;;13.18;;
7605;SDS011;3844;53.360;9.738;2022-09-24T06:35:33;20.42;;;13.15;;
7605;SDS011;3844;53.360;9.738;2022-09-24T06:37:37;28.83;;;18.02;;
7605;SDS011;3844;53.360;9.738;2022-09-24T06:39:38;22.70;;;13.90;;
7605;SDS011;3844;53.360;9.738;2022-09-24T06:41:39;23.42;;;14.50;;
7605;SDS011;3844;53.360;9.738;2022-09-24T06:43:39;22.80;;;13.43;;
7605;SDS011;3844;53.360;9.738;2022-09-24T06:45:40;19.08;;;12.13;;
7605;SDS011;3844;53.360;9.738;2022-09-24T06:49:50;23.88;;;14.02;;
7605;SDS011;3844;53.360;9.738;2022-09-24T06:51:52;21.65;;;13.48;;
7605;SDS011;3844;53.360;9.738;2022-09-24T06:53:53;27.33;;;18.00;;
7605;SDS011;3844;53.360;9.738;2022-09-24T06:55:55;21.35;;;13.27;;
7605;SDS011;3844;53.360;9.738;2022-09-24T06:58:05;22.58;;;14.25;;
7605;SDS011;3844;53.360;9.738;2022-09-24T07:00:08;20.67;;;12.85;;
7605;SDS011;3844;53.360;9.738;2022-09-24T07:02:09;19.13;;;12.15;;
7605;SDS011;3844;53.360;9.738;2022-09-24T07:04:10;25.77;;;15.25;;
7605;SDS011;3844;53.360;9.738;2022-09-24T07:06:11;19.17;;;12.63;;
7605;SDS011;3844;53.360;9.738;2022-09-24T07:08:11;23.55;;;14.95;;
7605;SDS011;3844;53.360;9.738;2022-09-24T07:10:12;25.02;;;15.85;;
7605;SDS011;3844;53.360;9.738;2022-09-24T07:12:14;22.73;;;14.43;;
7605;SDS011;3844;53.360;9.738;2022-09-24T07:14:14;21.83;;;13.82;;
7605;SDS011;3844;53.360;9.738;2022-09-24T07:16:15;20.00;;;11.27;;
7605;SDS011;3844;53.360;9.738;2022-09-24T07:18:16;22.90;;;14.43;;
7605;SDS011;3844;53.360;9.738;2022-09-24T07:20:17;20.30;;;12.95;;
7605;SDS011;3844;53.360;9.738;2022-09-24T07:22:18;23.45;;;14.40;;
7605;SDS011;3844;53.360;9.738;2022-09-24T07:24:19;23.77;;;13.35;;
7605;SDS011;3844;53.360;9.738;2022-09-24T07:26:20;19.27;;;11.77;;
7605;SDS011;3844;53.360;9.738;2022-09-24T07:28:21;23.25;;;15.00;;
7605;SDS011;3844;53.360;9.738;2022-09-24T07:30:22;22.83;;;15.15;;
7605;SDS011;3844;53.360;9.738;2022-09-24T07:32:22;19.00;;;12.00;;
7605;SDS011;3844;53.360;9.738;2022-09-24T07:34:23;23.33;;;15.20;;
7605;SDS011;3844;53.360;9.738;2022-09-24T07:36:24;18.77;;;12.20;;
7605;SDS011;3844;53.360;9.738;2022-09-24T07:38:24;19.02;;;11.88;;
7605;SDS011;3844;53.360;9.738;2022-09-24T07:40:26;22.30;;;14.57;;
7605;SDS011;3844;53.360;9.738;2022-09-24T07:42:27;24.02;;;16.05;;
7605;SDS011;3844;53.360;9.738;2022-09-24T07:44:28;19.02;;;11.93;;
7605;SDS011;3844;53.360;9.738;2022-09-24T07:46:29;18.35;;;11.95;;
7605;SDS011;3844;53.360;9.738;2022-09-24T07:48:30;22.67;;;15.55;;
7605;SDS011;3844;53.360;9.738;2022-09-24T07:50:32;23.20;;;14.57;;
7605;SDS011;3844;53.360;9.738;2022-09-24T07:52:34;20.50;;;13.27;;
7605;SDS011;3844;53.360;9.738;2022-09-24T07:54:34;17.88;;;11.82;;
7605;SDS011;3844;53.360;9.738;2022-09-24T07:56:35;20.33;;;13.35;;
7605;SDS011;3844;53.360;9.738;2022-09-24T07:58:36;24.08;;;14.77;;
7605;SDS011;3844;53.360;9.738;2022-09-24T08:00:37;27.35;;;15.95;;
7605;SDS011;3844;53.360;9.738;2022-09-24T08:02:38;21.48;;;14.20;;
7605;SDS011;3844;53.360;9.738;2022-09-24T08:04:39;21.77;;;14.35;;
7605;SDS011;3844;53.360;9.738;2022-09-24T08:06:40;19.80;;;13.70;;
7605;SDS011;3844;53.360;9.738;2022-09-24T08:08:41;22.80;;;14.68;;
7605;SDS011;3844;53.360;9.738;2022-09-24T08:10:42;24.23;;;15.73;;
7605;SDS011;3844;53.360;9.738;2022-09-24T08:12:43;22.40;;;15.13;;
7605;SDS011;3844;53.360;9.738;2022-09-24T08:14:44;20.17;;;12.23;;
7605;SDS011;3844;53.360;9.738;2022-09-24T08:16:44;16.40;;;10.98;;
7605;SDS011;3844;53.360;9.738;2022-09-24T08:18:45;21.30;;;13.32;;
7605;SDS011;3844;53.360;9.738;2022-09-24T08:20:46;18.40;;;12.35;;
7605;SDS011;3844;53.360;9.738;2022-09-24T08:22:46;15.40;;;10.25;;
7605;SDS011;3844;53.360;9.738;2022-09-24T08:24:47;19.85;;;13.45;;
7605;SDS011;3844;53.360;9.738;2022-09-24T08:26:49;20.83;;;13.05;;
7605;SDS011;3844;53.360;9.738;2022-09-24T08:28:50;16.90;;;11.00;;
7605;SDS011;3844;53.360;9.738;2022-09-24T08:30:50;16.50;;;9.90;;
7605;SDS011;3844;53.360;9.738;2022-09-24T08:32:51;16.58;;;11.32;;
7605;SDS011;3844;53.360;9.738;2022-09-24T08:34:52;19.25;;;12.10;;
7605;SDS011;3844;53.360;9.738;2022-09-24T08:36:52;16.92;;;11.13;;
7605;SDS011;3844;53.360;9.738;2022-09-24T08:38:53;17.25;;;10.60;;
7605;SDS011;3844;53.360;9.738;2022-09-24T08:46:30;17.42;;;11.15;;
7605;SDS011;3844;53.360;9.738;2022-09-24T08:50:36;18.20;;;11.88;;
7605;SDS011;3844;53.360;9.738;2022-09-24T08:54:50;23.05;;;14.93;;
7605;SDS011;3844;53.360;9.738;2022-09-24T08:56:52;18.45;;;12.35;;
7605;SDS011;3844;53.360;9.738;2022-09-24T08:58:57;23.80;;;15.57;;
7605;SDS011;3844;53.360;9.738;2022-09-24T09:03:16;19.98;;;13.32;;
7605;SDS011;3844;53.360;9.738;2022-09-24T09:10:07;19.63;;;12.52;;
7605;SDS011;3844;53.360;9.738;2022-09-24T09:12:15;20.95;;;13.75;;
7605;SDS011;3844;53.360;9.738;2022-09-24T09:14:22;21.25;;;13.32;;
7605;SDS011;3844;53.360;9.738;2022-09-24T09:16:27;23.88;;;15.25;;
7605;SDS011;3844;53.360;9.738;2022-09-24T09:18:35;18.33;;;12.13;;
7605;SDS011;3844;53.360;9.738;2022-09-24T09:20:41;22.13;;;15.07;;
7605;SDS011;3844;53.360;9.738;2022-09-24T09:22:46;23.88;;;16.40;;
7605;SDS011;3844;53.360;9.738;2022-09-24T09:24:49;18.05;;;12.68;;
7605;SDS011;3844;53.360;9.738;2022-09-24T09:26:52;15.93;;;10.52;;
7605;SDS011;3844;53.360;9.738;2022-09-24T09:31:12;26.67;;;17.02;;
7605;SDS011;3844;53.360;9.738;2022-09-24T09:44:28;33.13;;;21.02;;
7605;SDS011;3844;53.360;9.738;2022-09-24T09:46:31;17.17;;;11.25;;
7605;SDS011;3844;53.360;9.738;2022-09-24T09:51:04;28.63;;;18.08;;
7605;SDS011;3844;53.360;9.738;2022-09-24T09:53:16;25.00;;;16.38;;
7605;SDS011;3844;53.360;9.738;2022-09-24T09:55:22;29.42;;;19.52;;
7605;SDS011;3844;53.360;9.738;2022-09-24T09:57:27;33.53;;;20.20;;
7605;SDS011;3844;53.360;9.738;2022-09-24T09:59:28;26.20;;;16.50;;
7605;SDS011;3844;53.360;9.738;2022-09-24T10:01:34;25.42;;;15.02;;
7605;SDS011;3844;53.360;9.738;2022-09-24T10:05:50;30.00;;;19.33;;
7605;SDS011;3844;53.360;9.738;2022-09-24T10:07:54;26.92;;;16.33;;
7605;SDS011;3844;53.360;9.738;2022-09-24T10:12:33;23.83;;;15.45;;
7605;SDS011;3844;53.360;9.738;2022-09-24T10:14:27;30.05;;;18.17;;
7605;SDS011;3844;53.360;9.738;2022-09-24T10:16:28;25.33;;;16.60;;
7605;SDS011;3844;53.360;9.738;2022-09-24T10:20:45;22.33;;;13.98;;
7605;SDS011;3844;53.360;9.738;2022-09-24T10:22:54;30.17;;;18.85;;
7605;SDS011;3844;53.360;9.738;2022-09-24T10:25:01;22.98;;;14.45;;
7605;SDS011;3844;53.360;9.738;2022-09-24T10:27:09;22.77;;;14.75;;
7605;SDS011;3844;53.360;9.738;2022-09-24T10:29:21;29.35;;;19.30;;
7605;SDS011;3844;53.360;9.738;2022-09-24T10:31:42;22.98;;;14.65;;
7605;SDS011;3844;53.360;9.738;2022-09-24T10:33:45;20.90;;;13.13;;
7605;SDS011;3844;53.360;9.738;2022-09-24T10:35:48;22.20;;;14.27;;
7605;SDS011;3844;53.360;9.738;2022-09-24T10:37:49;21.50;;;13.90;;
7605;SDS011;3844;53.360;9.738;2022-09-24T10:39:59;27.15;;;17.40;;
7605;SDS011;3844;53.360;9.738;2022-09-24T10:42:01;24.83;;;16.27;;
7605;SDS011;3844;53.360;9.738;2022-09-24T10:44:03;25.00;;;15.73;;
7605;SDS011;3844;53.360;9.738;2022-09-24T10:46:16;30.02;;;18.65;;
7605;SDS011;3844;53.360;9.738;2022-09-24T10:53:24;24.25;;;15.65;;
7605;SDS011;3844;53.360;9.738;2022-09-24T11:04:50;22.40;;;14.68;;
7605;SDS011;3844;53.360;9.738;2022-09-24T11:09:36;19.20;;;12.80;;
7605;SDS011;3844;53.360;9.738;2022-09-24T11:14:12;26.23;;;15.13;;
7605;SDS011;3844;53.360;9.738;2022-09-24T11:18:44;19.60;;;13.02;;
7605;SDS011;3844;53.360;9.738;2022-09-24T11:23:42;18.70;;;10.93;;
7605;SDS011;3844;53.360;9.738;2022-09-24T11:42:23;18.83;;;12.80;;
7605;SDS011;3844;53.360;9.738;2022-09-24T11:55:51;20.20;;;13.63;;
7605;SDS011;3844;53.360;9.738;2022-09-24T12:00:17;19.63;;;11.90;;
7605;SDS011;3844;53.360;9.738;2022-09-24T12:02:21;20.70;;;14.20;;
7605;SDS011;3844;53.360;9.738;2022-09-24T12:04:41;21.88;;;13.70;;
7605;SDS011;3844;53.360;9.738;2022-09-24T12:06:56;21.85;;;14.55;;
7605;SDS011;3844;53.360;9.738;2022-09-24T12:11:35;21.90;;;14.48;;
7605;SDS011;3844;53.360;9.738;2022-09-24T12:13:44;29.55;;;19.40;;
7605;SDS011;3844;53.360;9.738;2022-09-24T12:15:58;22.60;;;14.60;;
7605;SDS011;3844;53.360;9.738;2022-09-24T12:18:06;24.90;;;17.42;;
7605;SDS011;3844;53.360;9.738;2022-09-24T12:20:17;25.73;;;17.15;;
7605;SDS011;3844;53.360;9.738;2022-09-24T12:22:22;20.63;;;13.43;;
7605;SDS011;3844;53.360;9.738;2022-09-24T12:26:40;23.17;;;15.20;;
7605;SDS011;3844;53.360;9.738;2022-09-24T12:31:23;16.50;;;11.13;;
7605;SDS011;3844;53.360;9.738;2022-09-24T12:34:04;18.90;;;12.85;;
7605;SDS011;3844;53.360;9.738;2022-09-24T12:36:29;17.13;;;11.95;;
7605;SDS011;3844;53.360;9.738;2022-09-24T12:38:54;22.50;;;14.98;;
7605;SDS011;3844;53.360;9.738;2022-09-24T12:41:16;15.57;;;11.23;;
7605;SDS011;3844;53.360;9.738;2022-09-24T12:43:41;21.13;;;14.68;;
7605;SDS011;3844;53.360;9.738;2022-09-24T12:45:51;18.05;;;12.82;;
7605;SDS011;3844;53.360;9.738;2022-09-24T12:47:58;18.55;;;11.73;;
7605;SDS011;3844;53.360;9.738;2022-09-24T12:50:01;23.35;;;14.40;;
7605;SDS011;3844;53.360;9.738;2022-09-24T12:52:17;15.95;;;10.50;;
7605;SDS011;3844;53.360;9.738;2022-09-24T12:54:34;21.33;;;13.73;;
7605;SDS011;3844;53.360;9.738;2022-09-24T12:56:36;17.33;;;12.05;;
7605;SDS011;3844;53.360;9.738;2022-09-24T12:58:38;15.65;;;10.55;;
7605;SDS011;3844;53.360;9.738;2022-09-24T13:00:42;15.38;;;10.45;;
7605;SDS011;3844;53.360;9.738;2022-09-24T13:02:46;17.27;;;11.75;;
7605;SDS011;3844;53.360;9.738;2022-09-24T13:05:33;15.60;;;9.95;;
7605;SDS011;3844;53.360;9.738;2022-09-24T13:09:39;20.83;;;13.82;;
7605;SDS011;3844;53.360;9.738;2022-09-24T13:11:41;19.50;;;12.93;;
7605;SDS011;3844;53.360;9.738;2022-09-24T13:13:42;20.85;;;13.90;;
7605;SDS011;3844;53.360;9.738;2022-09-24T13:15:43;19.83;;;12.32;;
7605;SDS011;3844;53.360;9.738;2022-09-24T13:18:12;21.17;;;14.63;;
7605;SDS011;3844;53.360;9.738;2022-09-24T13:20:23;18.35;;;11.98;;
7605;SDS011;3844;53.360;9.738;2022-09-24T13:24:27;23.02;;;14.48;;
7605;SDS011;3844;53.360;9.738;2022-09-24T13:26:30;19.55;;;12.88;;
7605;SDS011;3844;53.360;9.738;2022-09-24T13:30:54;23.50;;;15.63;;
7605;SDS011;3844;53.360;9.738;2022-09-24T13:33:08;19.58;;;13.50;;
7605;SDS011;3844;53.360;9.738;2022-09-24T13:35:21;25.00;;;16.95;;
7605;SDS011;3844;53.360;9.738;2022-09-24T13:37:31;19.38;;;12.50;;
7605;SDS011;3844;53.360;9.738;2022-09-24T13:39:44;17.85;;;12.90;;
7605;SDS011;3844;53.360;9.738;2022-09-24T13:44:19;15.73;;;10.32;;
7605;SDS011;3844;53.360;9.738;2022-09-24T13:46:27;19.45;;;12.65;;
7605;SDS011;3844;53.360;9.738;2022-09-24T13:48:37;20.92;;;13.32;;
7605;SDS011;3844;53.360;9.738;2022-09-24T13:50:43;18.67;;;11.68;;
7605;SDS011;3844;53.360;9.738;2022-09-24T13:54:53;17.73;;;11.18;;
7605;SDS011;3844;53.360;9.738;2022-09-24T13:57:10;14.13;;;9.50;;
7605;SDS011;3844;53.360;9.738;2022-09-24T13:59:13;16.83;;;10.77;;
7605;SDS011;3844;53.360;9.738;2022-09-24T14:03:25;17.50;;;12.38;;
7605;SDS011;3844;53.360;9.738;2022-09-24T14:05:34;15.18;;;10.43;;
7605;SDS011;3844;53.360;9.738;2022-09-24T14:07:35;12.60;;;8.88;;
7605;SDS011;3844;53.360;9.738;2022-09-24T14:09:36;16.27;;;10.07;;
7605;SDS011;3844;53.360;9.738;2022-09-24T14:11:37;16.00;;;10.98;;
7605;SDS011;3844;53.360;9.738;2022-09-24T14:13:49;24.20;;;16.98;;
7605;SDS011;3844;53.360;9.738;2022-09-24T14:15:55;21.67;;;13.68;;
7605;SDS011;3844;53.360;9.738;2022-09-24T14:18:12;17.13;;;11.98;;
7605;SDS011;3844;53.360;9.738;2022-09-24T14:20:14;18.55;;;11.95;;
7605;SDS011;3844;53.360;9.738;2022-09-24T14:22:16;18.00;;;12.13;;
7605;SDS011;3844;53.360;9.738;2022-09-24T14:24:27;18.13;;;11.70;;
7605;SDS011;3844;53.360;9.738;2022-09-24T14:26:54;16.33;;;11.82;;
7605;SDS011;3844;53.360;9.738;2022-09-24T14:28:57;14.50;;;9.45;;
7605;SDS011;3844;53.360;9.738;2022-09-24T14:30:59;18.80;;;11.43;;
7605;SDS011;3844;53.360;9.738;2022-09-24T14:33:02;15.90;;;10.70;;
7605;SDS011;3844;53.360;9.738;2022-09-24T14:35:49;16.15;;;10.43;;
7605;SDS011;3844;53.360;9.738;2022-09-24T14:37:35;15.25;;;10.30;;
7605;SDS011;3844;53.360;9.738;2022-09-24T14:39:41;16.02;;;10.88;;
7605;SDS011;3844;53.360;9.738;2022-09-24T14:41:44;14.40;;;9.73;;
7605;SDS011;3844;53.360;9.738;2022-09-24T14:43:49;13.75;;;9.38;;
7605;SDS011;3844;53.360;9.738;2022-09-24T14:46:07;14.35;;;9.68;;
7605;SDS011;3844;53.360;9.738;2022-09-24T14:48:32;14.90;;;9.93;;
7605;SDS011;3844;53.360;9.738;2022-09-24T14:50:37;15.93;;;11.25;;
7605;SDS011;3844;53.360;9.738;2022-09-24T14:52:39;15.57;;;9.98;;
7605;SDS011;3844;53.360;9.738;2022-09-24T14:54:40;14.18;;;10.20;;
7605;SDS011;3844;53.360;9.738;2022-09-24T14:56:41;14.50;;;10.50;;